sensor_id;sensor_type;location;lat;lon;timestamp;P1;durP1;ratioP1;P2;durP2;ratioP2
50511;SDS011;36446;47.642;-3.018;2023-12-28T00:00:08;34.30;;;24.80;;
50511;SDS011;36446;47.642;-3.018;2023-12-28T00:02:35;33.85;;;22.88;;
50511;SDS011;36446;47.642;-3.018;2023-12-28T00:05:02;30.73;;;20.42;;
50511;SDS011;36446;47.642;-3.018;2023-12-28T00:07:30;28.63;;;20.17;;
50511;SDS011;36446;47.642;-3.018;2023-12-28T00:09:58;26.90;;;18.63;;
50511;SDS011;36446;47.642;-3.018;2023-12-28T00:12:25;23.25;;;16.73;;
50511;SDS011;36446;47.642;-3.018;2023-12-28T00:14:53;23.90;;;17.17;;
50511;SDS011;36446;47.642;-3.018;2023-12-28T00:17:20;23.20;;;16.88;;
50511;SDS011;36446;47.642;-3.018;2023-12-28T00:19:47;23.85;;;15.65;;
50511;SDS011;36446;47.642;-3.018;2023-12-28T00:22:14;21.88;;;14.70;;
50511;SDS011;36446;47.642;-3.018;2023-12-28T00:24:41;19.67;;;13.93;;
50511;SDS011;36446;47.642;-3.018;2023-12-28T00:27:10;17.50;;;12.43;;
50511;SDS011;36446;47.642;-3.018;2023-12-28T00:29:37;16.95;;;11.93;;
50511;SDS011;36446;47.642;-3.018;2023-12-28T00:32:06;18.13;;;12.20;;
50511;SDS011;36446;47.642;-3.018;2023-12-28T00:34:34;17.33;;;12.03;;
50511;SDS011;36446;47.642;-3.018;2023-12-28T00:37:01;17.08;;;11.52;;
50511;SDS011;36446;47.642;-3.018;2023-12-28T00:39:29;18.17;;;12.07;;
50511;SDS011;36446;47.642;-3.018;2023-12-28T00:41:56;16.30;;;10.63;;
50511;SDS011;36446;47.642;-3.018;2023-12-28T00:44:24;17.88;;;11.00;;
50511;SDS011;36446;47.642;-3.018;2023-12-28T00:46:51;15.53;;;10.63;;
50511;SDS011;36446;47.642;-3.018;2023-12-28T00:49:19;17.08;;;10.45;;
50511;SDS011;36446;47.642;-3.018;2023-12-28T00:51:46;16.90;;;10.77;;
50511;SDS011;36446;47.642;-3.018;2023-12-28T00:54:13;14.98;;;10.07;;
50511;SDS011;36446;47.642;-3.018;2023-12-28T00:56:41;15.88;;;9.88;;
50511;SDS011;36446;47.642;-3.018;2023-12-28T00:59:08;16.02;;;10.25;;
50511;SDS011;36446;47.642;-3.018;2023-12-28T01:01:36;15.52;;;9.82;;
50511;SDS011;36446;47.642;-3.018;2023-12-28T01:04:03;14.15;;;9.05;;
50511;SDS011;36446;47.642;-3.018;2023-12-28T01:06:31;14.02;;;8.75;;
50511;SDS011;36446;47.642;-3.018;2023-12-28T01:08:58;12.27;;;8.30;;
50511;SDS011;36446;47.642;-3.018;2023-12-28T01:11:25;12.20;;;8.18;;
50511;SDS011;36446;47.642;-3.018;2023-12-28T01:13:53;10.70;;;7.03;;
50511;SDS011;36446;47.642;-3.018;2023-12-28T01:16:20;11.97;;;7.20;;
50511;SDS011;36446;47.642;-3.018;2023-12-28T01:18:48;9.30;;;6.43;;
50511;SDS011;36446;47.642;-3.018;2023-12-28T01:21:16;10.55;;;6.35;;
50511;SDS011;36446;47.642;-3.018;2023-12-28T01:23:43;10.38;;;6.10;;
50511;SDS011;36446;47.642;-3.018;2023-12-28T01:26:12;9.40;;;5.65;;
50511;SDS011;36446;47.642;-3.018;2023-12-28T01:28:39;12.60;;;6.72;;
50511;SDS011;36446;47.642;-3.018;2023-12-28T01:31:08;10.95;;;6.38;;
50511;SDS011;36446;47.642;-3.018;2023-12-28T01:33:35;9.30;;;5.60;;
50511;SDS011;36446;47.642;-3.018;2023-12-28T01:36:13;9.93;;;6.15;;
50511;SDS011;36446;47.642;-3.018;2023-12-28T01:38:40;10.38;;;5.70;;
50511;SDS011;36446;47.642;-3.018;2023-12-28T01:41:07;10.35;;;5.65;;
50511;SDS011;36446;47.642;-3.018;2023-12-28T01:43:34;9.15;;;5.43;;
50511;SDS011;36446;47.642;-3.018;2023-12-28T01:46:02;9.50;;;5.60;;
50511;SDS011;36446;47.642;-3.018;2023-12-28T01:48:29;8.70;;;5.60;;
50511;SDS011;36446;47.642;-3.018;2023-12-28T01:50:56;10.68;;;5.60;;
50511;SDS011;36446;47.642;-3.018;2023-12-28T01:53:25;10.20;;;5.53;;
50511;SDS011;36446;47.642;-3.018;2023-12-28T01:55:52;9.00;;;5.15;;
50511;SDS011;36446;47.642;-3.018;2023-12-28T01:58:19;10.30;;;4.72;;
50511;SDS011;36446;47.642;-3.018;2023-12-28T02:00:47;8.97;;;4.83;;
50511;SDS011;36446;47.642;-3.018;2023-12-28T02:03:15;8.10;;;5.00;;
50511;SDS011;36446;47.642;-3.018;2023-12-28T02:05:42;7.50;;;4.27;;
50511;SDS011;36446;47.642;-3.018;2023-12-28T02:08:09;8.30;;;4.70;;
50511;SDS011;36446;47.642;-3.018;2023-12-28T02:10:38;8.50;;;4.15;;
50511;SDS011;36446;47.642;-3.018;2023-12-28T02:13:05;8.52;;;4.05;;
50511;SDS011;36446;47.642;-3.018;2023-12-28T02:15:32;7.03;;;3.83;;
50511;SDS011;36446;47.642;-3.018;2023-12-28T02:18:01;9.30;;;4.20;;
50511;SDS011;36446;47.642;-3.018;2023-12-28T02:20:29;7.03;;;3.95;;
50511;SDS011;36446;47.642;-3.018;2023-12-28T02:22:56;8.05;;;3.97;;
50511;SDS011;36446;47.642;-3.018;2023-12-28T02:25:26;6.88;;;3.67;;
50511;SDS011;36446;47.642;-3.018;2023-12-28T02:27:53;7.47;;;3.80;;
50511;SDS011;36446;47.642;-3.018;2023-12-28T02:30:21;7.95;;;3.88;;
50511;SDS011;36446;47.642;-3.018;2023-12-28T02:32:52;7.07;;;3.88;;
50511;SDS011;36446;47.642;-3.018;2023-12-28T02:35:22;6.25;;;3.53;;
50511;SDS011;36446;47.642;-3.018;2023-12-28T02:37:51;6.93;;;3.70;;
50511;SDS011;36446;47.642;-3.018;2023-12-28T02:40:20;7.10;;;3.53;;
50511;SDS011;36446;47.642;-3.018;2023-12-28T02:42:49;7.70;;;4.10;;
50511;SDS011;36446;47.642;-3.018;2023-12-28T02:45:17;7.95;;;3.47;;
50511;SDS011;36446;47.642;-3.018;2023-12-28T02:47:44;6.65;;;3.65;;
50511;SDS011;36446;47.642;-3.018;2023-12-28T02:50:11;5.38;;;2.88;;
50511;SDS011;36446;47.642;-3.018;2023-12-28T02:52:39;6.68;;;3.42;;
50511;SDS011;36446;47.642;-3.018;2023-12-28T02:55:06;5.80;;;3.10;;
50511;SDS011;36446;47.642;-3.018;2023-12-28T02:57:34;6.75;;;2.97;;
50511;SDS011;36446;47.642;-3.018;2023-12-28T03:00:06;5.85;;;2.78;;
50511;SDS011;36446;47.642;-3.018;2023-12-28T03:02:34;4.43;;;2.50;;
50511;SDS011;36446;47.642;-3.018;2023-12-28T03:05:01;6.07;;;2.93;;
50511;SDS011;36446;47.642;-3.018;2023-12-28T03:07:29;5.60;;;2.67;;
50511;SDS011;36446;47.642;-3.018;2023-12-28T03:09:56;6.05;;;2.83;;
50511;SDS011;36446;47.642;-3.018;2023-12-28T03:12:23;5.72;;;2.72;;
50511;SDS011;36446;47.642;-3.018;2023-12-28T03:14:50;5.35;;;2.92;;
50511;SDS011;36446;47.642;-3.018;2023-12-28T03:17:19;5.38;;;2.72;;
50511;SDS011;36446;47.642;-3.018;2023-12-28T03:19:46;7.75;;;2.85;;
50511;SDS011;36446;47.642;-3.018;2023-12-28T03:22:14;7.18;;;2.90;;
50511;SDS011;36446;47.642;-3.018;2023-12-28T03:24:42;7.20;;;2.92;;
50511;SDS011;36446;47.642;-3.018;2023-12-28T03:27:09;7.50;;;2.80;;
50511;SDS011;36446;47.642;-3.018;2023-12-28T03:29:37;6.65;;;2.63;;
50511;SDS011;36446;47.642;-3.018;2023-12-28T03:32:04;5.65;;;2.83;;
50511;SDS011;36446;47.642;-3.018;2023-12-28T03:34:33;6.03;;;2.60;;
50511;SDS011;36446;47.642;-3.018;2023-12-28T03:37:00;6.13;;;2.50;;
50511;SDS011;36446;47.642;-3.018;2023-12-28T03:39:27;7.82;;;2.67;;
50511;SDS011;36446;47.642;-3.018;2023-12-28T03:41:55;5.90;;;2.50;;
50511;SDS011;36446;47.642;-3.018;2023-12-28T03:44:22;5.07;;;1.98;;
50511;SDS011;36446;47.642;-3.018;2023-12-28T03:46:50;4.57;;;1.98;;
50511;SDS011;36446;47.642;-3.018;2023-12-28T03:49:17;3.80;;;1.90;;
50511;SDS011;36446;47.642;-3.018;2023-12-28T03:51:46;4.10;;;1.90;;
50511;SDS011;36446;47.642;-3.018;2023-12-28T03:54:15;5.00;;;1.90;;
50511;SDS011;36446;47.642;-3.018;2023-12-28T03:56:43;6.23;;;2.00;;
50511;SDS011;36446;47.642;-3.018;2023-12-28T03:59:10;5.40;;;1.92;;
50511;SDS011;36446;47.642;-3.018;2023-12-28T04:01:37;5.15;;;2.03;;
50511;SDS011;36446;47.642;-3.018;2023-12-28T04:04:04;5.25;;;2.13;;
50511;SDS011;36446;47.642;-3.018;2023-12-28T04:06:31;4.95;;;1.98;;
50511;SDS011;36446;47.642;-3.018;2023-12-28T04:09:00;4.82;;;2.45;;
50511;SDS011;36446;47.642;-3.018;2023-12-28T04:11:27;5.60;;;2.20;;
50511;SDS011;36446;47.642;-3.018;2023-12-28T04:13:54;6.65;;;2.08;;
50511;SDS011;36446;47.642;-3.018;2023-12-28T04:16:22;4.22;;;2.15;;
50511;SDS011;36446;47.642;-3.018;2023-12-28T04:18:49;6.18;;;2.17;;
50511;SDS011;36446;47.642;-3.018;2023-12-28T04:21:17;5.27;;;2.10;;
50511;SDS011;36446;47.642;-3.018;2023-12-28T04:23:44;5.40;;;2.10;;
50511;SDS011;36446;47.642;-3.018;2023-12-28T04:26:12;4.88;;;2.13;;
50511;SDS011;36446;47.642;-3.018;2023-12-28T04:28:40;5.18;;;2.20;;
50511;SDS011;36446;47.642;-3.018;2023-12-28T04:31:07;5.28;;;2.10;;
50511;SDS011;36446;47.642;-3.018;2023-12-28T04:33:34;5.50;;;1.95;;
50511;SDS011;36446;47.642;-3.018;2023-12-28T04:36:01;5.63;;;2.10;;
50511;SDS011;36446;47.642;-3.018;2023-12-28T04:38:30;5.03;;;2.05;;
50511;SDS011;36446;47.642;-3.018;2023-12-28T04:40:57;3.65;;;1.70;;
50511;SDS011;36446;47.642;-3.018;2023-12-28T04:43:26;4.50;;;1.90;;
50511;SDS011;36446;47.642;-3.018;2023-12-28T04:45:53;3.83;;;1.60;;
50511;SDS011;36446;47.642;-3.018;2023-12-28T04:48:20;5.28;;;1.92;;
50511;SDS011;36446;47.642;-3.018;2023-12-28T04:50:50;3.63;;;1.60;;
50511;SDS011;36446;47.642;-3.018;2023-12-28T04:53:18;4.60;;;1.80;;
50511;SDS011;36446;47.642;-3.018;2023-12-28T04:55:45;6.18;;;1.80;;
50511;SDS011;36446;47.642;-3.018;2023-12-28T04:58:12;7.63;;;2.10;;
50511;SDS011;36446;47.642;-3.018;2023-12-28T05:00:41;4.28;;;1.63;;
50511;SDS011;36446;47.642;-3.018;2023-12-28T05:03:08;5.28;;;1.95;;
50511;SDS011;36446;47.642;-3.018;2023-12-28T05:05:35;5.65;;;1.95;;
50511;SDS011;36446;47.642;-3.018;2023-12-28T05:08:03;4.82;;;1.75;;
50511;SDS011;36446;47.642;-3.018;2023-12-28T05:10:30;5.13;;;1.80;;
50511;SDS011;36446;47.642;-3.018;2023-12-28T05:12:57;4.25;;;1.80;;
50511;SDS011;36446;47.642;-3.018;2023-12-28T05:15:24;4.32;;;1.90;;
50511;SDS011;36446;47.642;-3.018;2023-12-28T05:17:53;5.03;;;1.85;;
50511;SDS011;36446;47.642;-3.018;2023-12-28T05:20:20;4.88;;;2.10;;
50511;SDS011;36446;47.642;-3.018;2023-12-28T05:22:47;3.93;;;1.73;;
50511;SDS011;36446;47.642;-3.018;2023-12-28T05:25:15;3.67;;;1.60;;
50511;SDS011;36446;47.642;-3.018;2023-12-28T05:27:42;4.57;;;1.67;;
50511;SDS011;36446;47.642;-3.018;2023-12-28T05:30:09;3.67;;;1.50;;
50511;SDS011;36446;47.642;-3.018;2023-12-28T05:32:37;4.03;;;1.60;;
50511;SDS011;36446;47.642;-3.018;2023-12-28T05:35:06;5.63;;;1.70;;
50511;SDS011;36446;47.642;-3.018;2023-12-28T05:37:33;6.03;;;1.93;;
50511;SDS011;36446;47.642;-3.018;2023-12-28T05:40:00;5.00;;;1.80;;
50511;SDS011;36446;47.642;-3.018;2023-12-28T05:42:27;4.00;;;1.70;;
50511;SDS011;36446;47.642;-3.018;2023-12-28T05:44:55;4.55;;;1.95;;
50511;SDS011;36446;47.642;-3.018;2023-12-28T05:47:22;3.70;;;1.67;;
50511;SDS011;36446;47.642;-3.018;2023-12-28T05:49:49;4.50;;;1.90;;
50511;SDS011;36446;47.642;-3.018;2023-12-28T05:52:18;4.13;;;1.63;;
50511;SDS011;36446;47.642;-3.018;2023-12-28T05:54:45;4.32;;;2.00;;
50511;SDS011;36446;47.642;-3.018;2023-12-28T05:57:13;5.15;;;1.70;;
50511;SDS011;36446;47.642;-3.018;2023-12-28T05:59:40;4.70;;;2.03;;
50511;SDS011;36446;47.642;-3.018;2023-12-28T06:02:07;4.00;;;1.58;;
50511;SDS011;36446;47.642;-3.018;2023-12-28T06:04:34;4.95;;;1.77;;
50511;SDS011;36446;47.642;-3.018;2023-12-28T06:07:02;3.55;;;1.70;;
50511;SDS011;36446;47.642;-3.018;2023-12-28T06:09:31;5.25;;;1.50;;
50511;SDS011;36446;47.642;-3.018;2023-12-28T06:11:58;3.83;;;1.38;;
50511;SDS011;36446;47.642;-3.018;2023-12-28T06:14:25;4.10;;;1.60;;
50511;SDS011;36446;47.642;-3.018;2023-12-28T06:16:53;3.90;;;1.40;;
50511;SDS011;36446;47.642;-3.018;2023-12-28T06:19:20;4.72;;;1.42;;
50511;SDS011;36446;47.642;-3.018;2023-12-28T06:21:47;3.60;;;1.50;;
50511;SDS011;36446;47.642;-3.018;2023-12-28T06:24:15;4.22;;;1.40;;
50511;SDS011;36446;47.642;-3.018;2023-12-28T06:26:43;3.97;;;1.65;;
50511;SDS011;36446;47.642;-3.018;2023-12-28T06:29:11;5.68;;;1.65;;
50511;SDS011;36446;47.642;-3.018;2023-12-28T06:31:38;4.38;;;1.63;;
50511;SDS011;36446;47.642;-3.018;2023-12-28T06:34:05;4.17;;;1.53;;
50511;SDS011;36446;47.642;-3.018;2023-12-28T06:36:33;4.75;;;1.70;;
50511;SDS011;36446;47.642;-3.018;2023-12-28T06:39:00;3.65;;;1.70;;
50511;SDS011;36446;47.642;-3.018;2023-12-28T06:41:27;5.25;;;1.70;;
50511;SDS011;36446;47.642;-3.018;2023-12-28T06:43:56;4.07;;;1.80;;
50511;SDS011;36446;47.642;-3.018;2023-12-28T06:46:23;3.70;;;1.83;;
50511;SDS011;36446;47.642;-3.018;2023-12-28T06:48:50;4.38;;;1.85;;
50511;SDS011;36446;47.642;-3.018;2023-12-28T06:51:18;4.40;;;1.50;;
50511;SDS011;36446;47.642;-3.018;2023-12-28T06:53:45;5.27;;;1.37;;
50511;SDS011;36446;47.642;-3.018;2023-12-28T06:56:13;3.73;;;1.60;;
50511;SDS011;36446;47.642;-3.018;2023-12-28T06:58:41;4.25;;;1.48;;
50511;SDS011;36446;47.642;-3.018;2023-12-28T07:01:09;4.95;;;1.50;;
50511;SDS011;36446;47.642;-3.018;2023-12-28T07:03:37;2.90;;;1.40;;
50511;SDS011;36446;47.642;-3.018;2023-12-28T07:06:04;4.88;;;1.58;;
50511;SDS011;36446;47.642;-3.018;2023-12-28T07:08:31;3.38;;;1.30;;
50511;SDS011;36446;47.642;-3.018;2023-12-28T07:10:58;5.78;;;1.63;;
50511;SDS011;36446;47.642;-3.018;2023-12-28T07:13:26;4.07;;;1.70;;
50511;SDS011;36446;47.642;-3.018;2023-12-28T07:15:53;4.97;;;1.80;;
50511;SDS011;36446;47.642;-3.018;2023-12-28T07:18:21;4.13;;;1.80;;
50511;SDS011;36446;47.642;-3.018;2023-12-28T07:20:49;4.32;;;1.50;;
50511;SDS011;36446;47.642;-3.018;2023-12-28T07:23:16;5.13;;;1.67;;
50511;SDS011;36446;47.642;-3.018;2023-12-28T07:25:43;5.00;;;1.52;;
50511;SDS011;36446;47.642;-3.018;2023-12-28T07:28:10;5.50;;;1.65;;
50511;SDS011;36446;47.642;-3.018;2023-12-28T07:30:38;4.72;;;1.50;;
50511;SDS011;36446;47.642;-3.018;2023-12-28T07:33:06;3.30;;;1.20;;
50511;SDS011;36446;47.642;-3.018;2023-12-28T07:35:34;4.18;;;1.30;;
50511;SDS011;36446;47.642;-3.018;2023-12-28T07:38:02;3.88;;;1.25;;
50511;SDS011;36446;47.642;-3.018;2023-12-28T07:40:29;5.07;;;1.50;;
50511;SDS011;36446;47.642;-3.018;2023-12-28T07:42:56;5.15;;;1.60;;
50511;SDS011;36446;47.642;-3.018;2023-12-28T07:45:23;3.10;;;1.17;;
50511;SDS011;36446;47.642;-3.018;2023-12-28T07:47:50;3.63;;;1.40;;
50511;SDS011;36446;47.642;-3.018;2023-12-28T07:50:18;3.20;;;1.50;;
50511;SDS011;36446;47.642;-3.018;2023-12-28T07:52:47;4.85;;;1.52;;
50511;SDS011;36446;47.642;-3.018;2023-12-28T07:55:14;6.65;;;1.70;;
50511;SDS011;36446;47.642;-3.018;2023-12-28T07:57:41;4.47;;;1.50;;
50511;SDS011;36446;47.642;-3.018;2023-12-28T08:00:09;5.30;;;1.50;;
50511;SDS011;36446;47.642;-3.018;2023-12-28T08:02:36;6.00;;;1.92;;
50511;SDS011;36446;47.642;-3.018;2023-12-28T08:05:04;5.13;;;1.70;;
50511;SDS011;36446;47.642;-3.018;2023-12-28T08:07:31;4.00;;;1.42;;
50511;SDS011;36446;47.642;-3.018;2023-12-28T08:10:00;4.03;;;1.63;;
50511;SDS011;36446;47.642;-3.018;2023-12-28T08:12:27;3.85;;;1.35;;
50511;SDS011;36446;47.642;-3.018;2023-12-28T08:14:54;3.67;;;1.40;;
50511;SDS011;36446;47.642;-3.018;2023-12-28T08:17:21;4.07;;;1.40;;
50511;SDS011;36446;47.642;-3.018;2023-12-28T08:19:49;3.43;;;1.27;;
50511;SDS011;36446;47.642;-3.018;2023-12-28T08:22:16;3.92;;;1.30;;
50511;SDS011;36446;47.642;-3.018;2023-12-28T08:24:43;2.38;;;0.93;;
50511;SDS011;36446;47.642;-3.018;2023-12-28T08:27:12;2.80;;;1.08;;
50511;SDS011;36446;47.642;-3.018;2023-12-28T08:29:40;3.58;;;1.30;;
50511;SDS011;36446;47.642;-3.018;2023-12-28T08:32:07;3.60;;;1.27;;
50511;SDS011;36446;47.642;-3.018;2023-12-28T08:34:35;2.90;;;0.90;;
50511;SDS011;36446;47.642;-3.018;2023-12-28T08:37:03;2.55;;;0.90;;
50511;SDS011;36446;47.642;-3.018;2023-12-28T08:39:30;2.47;;;1.00;;
50511;SDS011;36446;47.642;-3.018;2023-12-28T08:41:57;3.25;;;0.90;;
50511;SDS011;36446;47.642;-3.018;2023-12-28T08:44:26;2.33;;;1.00;;
50511;SDS011;36446;47.642;-3.018;2023-12-28T08:46:53;2.88;;;1.00;;
50511;SDS011;36446;47.642;-3.018;2023-12-28T08:49:20;3.15;;;1.00;;
50511;SDS011;36446;47.642;-3.018;2023-12-28T08:51:48;4.18;;;1.33;;
50511;SDS011;36446;47.642;-3.018;2023-12-28T08:54:15;3.92;;;1.10;;
50511;SDS011;36446;47.642;-3.018;2023-12-28T08:56:42;2.55;;;1.00;;
50511;SDS011;36446;47.642;-3.018;2023-12-28T08:59:09;3.08;;;0.98;;
50511;SDS011;36446;47.642;-3.018;2023-12-28T09:01:38;3.17;;;1.30;;
50511;SDS011;36446;47.642;-3.018;2023-12-28T09:04:05;3.13;;;1.03;;
50511;SDS011;36446;47.642;-3.018;2023-12-28T09:06:32;5.70;;;1.60;;
50511;SDS011;36446;47.642;-3.018;2023-12-28T09:09:00;6.18;;;1.23;;
50511;SDS011;36446;47.642;-3.018;2023-12-28T09:11:28;3.87;;;1.30;;
50511;SDS011;36446;47.642;-3.018;2023-12-28T09:13:56;4.47;;;1.10;;
50511;SDS011;36446;47.642;-3.018;2023-12-28T09:16:23;4.63;;;1.13;;
50511;SDS011;36446;47.642;-3.018;2023-12-28T09:18:52;4.60;;;1.35;;
50511;SDS011;36446;47.642;-3.018;2023-12-28T09:21:20;2.90;;;1.10;;
50511;SDS011;36446;47.642;-3.018;2023-12-28T09:23:47;3.80;;;1.23;;
50511;SDS011;36446;47.642;-3.018;2023-12-28T09:26:14;5.63;;;1.40;;
50511;SDS011;36446;47.642;-3.018;2023-12-28T09:28:41;5.47;;;1.53;;
50511;SDS011;36446;47.642;-3.018;2023-12-28T09:31:10;3.97;;;1.15;;
50511;SDS011;36446;47.642;-3.018;2023-12-28T09:33:38;5.47;;;1.27;;
50511;SDS011;36446;47.642;-3.018;2023-12-28T09:36:07;5.30;;;1.42;;
50511;SDS011;36446;47.642;-3.018;2023-12-28T09:38:37;9.85;;;1.88;;
50511;SDS011;36446;47.642;-3.018;2023-12-28T09:41:06;8.05;;;1.88;;
50511;SDS011;36446;47.642;-3.018;2023-12-28T09:43:37;8.65;;;1.85;;
50511;SDS011;36446;47.642;-3.018;2023-12-28T09:46:06;6.20;;;1.60;;
50511;SDS011;36446;47.642;-3.018;2023-12-28T09:48:34;9.18;;;1.60;;
50511;SDS011;36446;47.642;-3.018;2023-12-28T09:51:03;7.73;;;1.70;;
50511;SDS011;36446;47.642;-3.018;2023-12-28T09:53:32;6.95;;;1.70;;
50511;SDS011;36446;47.642;-3.018;2023-12-28T09:55:59;10.00;;;1.80;;
50511;SDS011;36446;47.642;-3.018;2023-12-28T09:58:28;6.33;;;1.50;;
50511;SDS011;36446;47.642;-3.018;2023-12-28T10:00:57;8.82;;;1.73;;
50511;SDS011;36446;47.642;-3.018;2023-12-28T10:03:26;8.38;;;1.60;;
50511;SDS011;36446;47.642;-3.018;2023-12-28T10:05:54;6.68;;;1.75;;
50511;SDS011;36446;47.642;-3.018;2023-12-28T10:08:21;4.22;;;1.23;;
50511;SDS011;36446;47.642;-3.018;2023-12-28T10:10:50;5.33;;;1.43;;
50511;SDS011;36446;47.642;-3.018;2023-12-28T10:13:19;7.13;;;1.92;;
50511;SDS011;36446;47.642;-3.018;2023-12-28T10:15:46;10.30;;;1.63;;
50511;SDS011;36446;47.642;-3.018;2023-12-28T10:18:16;8.32;;;1.60;;
50511;SDS011;36446;47.642;-3.018;2023-12-28T10:20:48;5.95;;;1.60;;
50511;SDS011;36446;47.642;-3.018;2023-12-28T10:23:15;7.57;;;1.50;;
50511;SDS011;36446;47.642;-3.018;2023-12-28T10:25:42;6.70;;;1.40;;
50511;SDS011;36446;47.642;-3.018;2023-12-28T10:28:11;5.50;;;1.15;;
50511;SDS011;36446;47.642;-3.018;2023-12-28T10:30:40;7.65;;;1.40;;
50511;SDS011;36446;47.642;-3.018;2023-12-28T10:33:07;4.78;;;1.20;;
50511;SDS011;36446;47.642;-3.018;2023-12-28T10:35:35;7.45;;;1.50;;
50511;SDS011;36446;47.642;-3.018;2023-12-28T10:38:02;9.02;;;1.45;;
50511;SDS011;36446;47.642;-3.018;2023-12-28T10:40:32;14.25;;;1.88;;
50511;SDS011;36446;47.642;-3.018;2023-12-28T10:43:02;11.02;;;1.60;;
50511;SDS011;36446;47.642;-3.018;2023-12-28T10:45:32;7.35;;;1.30;;
50511;SDS011;36446;47.642;-3.018;2023-12-28T10:48:02;9.05;;;1.48;;
50511;SDS011;36446;47.642;-3.018;2023-12-28T10:50:33;8.65;;;1.23;;
50511;SDS011;36446;47.642;-3.018;2023-12-28T10:53:07;6.95;;;1.30;;
50511;SDS011;36446;47.642;-3.018;2023-12-28T10:55:40;5.75;;;1.27;;
50511;SDS011;36446;47.642;-3.018;2023-12-28T10:58:10;7.07;;;1.10;;
50511;SDS011;36446;47.642;-3.018;2023-12-28T11:00:40;6.18;;;1.15;;
50511;SDS011;36446;47.642;-3.018;2023-12-28T11:03:08;5.20;;;1.38;;
50511;SDS011;36446;47.642;-3.018;2023-12-28T11:05:38;6.53;;;1.50;;
50511;SDS011;36446;47.642;-3.018;2023-12-28T11:08:08;4.10;;;1.10;;
50511;SDS011;36446;47.642;-3.018;2023-12-28T11:10:35;6.30;;;1.15;;
50511;SDS011;36446;47.642;-3.018;2023-12-28T11:13:03;6.70;;;1.40;;
50511;SDS011;36446;47.642;-3.018;2023-12-28T11:15:32;5.70;;;1.20;;
50511;SDS011;36446;47.642;-3.018;2023-12-28T11:18:01;4.43;;;1.50;;
50511;SDS011;36446;47.642;-3.018;2023-12-28T11:20:28;5.05;;;1.30;;
50511;SDS011;36446;47.642;-3.018;2023-12-28T11:22:56;8.70;;;1.48;;
50511;SDS011;36446;47.642;-3.018;2023-12-28T11:25:24;6.53;;;1.40;;
50511;SDS011;36446;47.642;-3.018;2023-12-28T11:27:57;6.55;;;1.50;;
50511;SDS011;36446;47.642;-3.018;2023-12-28T11:30:25;4.72;;;1.40;;
50511;SDS011;36446;47.642;-3.018;2023-12-28T11:32:55;6.15;;;1.40;;
50511;SDS011;36446;47.642;-3.018;2023-12-28T11:35:24;5.15;;;1.20;;
50511;SDS011;36446;47.642;-3.018;2023-12-28T11:37:58;5.63;;;1.03;;
50511;SDS011;36446;47.642;-3.018;2023-12-28T11:40:29;7.22;;;1.20;;
50511;SDS011;36446;47.642;-3.018;2023-12-28T11:42:56;6.72;;;1.20;;
50511;SDS011;36446;47.642;-3.018;2023-12-28T11:45:23;8.32;;;1.23;;
50511;SDS011;36446;47.642;-3.018;2023-12-28T11:47:59;5.07;;;1.15;;
50511;SDS011;36446;47.642;-3.018;2023-12-28T11:50:28;9.02;;;1.30;;
50511;SDS011;36446;47.642;-3.018;2023-12-28T11:52:55;4.35;;;0.90;;
50511;SDS011;36446;47.642;-3.018;2023-12-28T11:55:22;6.30;;;0.93;;
50511;SDS011;36446;47.642;-3.018;2023-12-28T11:57:50;4.90;;;1.00;;
50511;SDS011;36446;47.642;-3.018;2023-12-28T12:00:17;5.57;;;1.23;;
50511;SDS011;36446;47.642;-3.018;2023-12-28T12:02:46;4.85;;;0.90;;
50511;SDS011;36446;47.642;-3.018;2023-12-28T12:05:14;6.47;;;1.40;;
50511;SDS011;36446;47.642;-3.018;2023-12-28T12:07:43;4.75;;;1.17;;
50511;SDS011;36446;47.642;-3.018;2023-12-28T12:10:14;6.57;;;1.27;;
50511;SDS011;36446;47.642;-3.018;2023-12-28T12:12:42;4.50;;;1.10;;
50511;SDS011;36446;47.642;-3.018;2023-12-28T12:15:09;5.43;;;1.50;;
50511;SDS011;36446;47.642;-3.018;2023-12-28T12:17:37;6.32;;;1.48;;
50511;SDS011;36446;47.642;-3.018;2023-12-28T12:20:05;6.90;;;1.60;;
50511;SDS011;36446;47.642;-3.018;2023-12-28T12:22:32;7.28;;;1.42;;
50511;SDS011;36446;47.642;-3.018;2023-12-28T12:25:01;6.25;;;1.45;;
50511;SDS011;36446;47.642;-3.018;2023-12-28T12:27:30;10.43;;;2.40;;
50511;SDS011;36446;47.642;-3.018;2023-12-28T12:29:57;8.60;;;2.20;;
50511;SDS011;36446;47.642;-3.018;2023-12-28T12:32:24;9.85;;;2.20;;
50511;SDS011;36446;47.642;-3.018;2023-12-28T12:34:52;8.05;;;2.10;;
50511;SDS011;36446;47.642;-3.018;2023-12-28T12:37:19;6.43;;;2.00;;
50511;SDS011;36446;47.642;-3.018;2023-12-28T12:39:46;8.75;;;2.45;;
50511;SDS011;36446;47.642;-3.018;2023-12-28T12:42:15;7.03;;;2.13;;
50511;SDS011;36446;47.642;-3.018;2023-12-28T12:44:43;5.50;;;1.80;;
50511;SDS011;36446;47.642;-3.018;2023-12-28T12:47:10;11.70;;;1.80;;
50511;SDS011;36446;47.642;-3.018;2023-12-28T12:49:39;5.28;;;1.45;;
50511;SDS011;36446;47.642;-3.018;2023-12-28T12:52:08;8.45;;;1.90;;
50511;SDS011;36446;47.642;-3.018;2023-12-28T12:54:35;7.13;;;1.85;;
50511;SDS011;36446;47.642;-3.018;2023-12-28T12:57:02;7.22;;;1.65;;
50511;SDS011;36446;47.642;-3.018;2023-12-28T12:59:34;7.30;;;1.50;;
50511;SDS011;36446;47.642;-3.018;2023-12-28T13:02:01;8.13;;;1.83;;
50511;SDS011;36446;47.642;-3.018;2023-12-28T13:04:29;7.45;;;1.52;;
50511;SDS011;36446;47.642;-3.018;2023-12-28T13:06:56;8.95;;;1.55;;
50511;SDS011;36446;47.642;-3.018;2023-12-28T13:09:23;6.38;;;1.40;;
50511;SDS011;36446;47.642;-3.018;2023-12-28T13:11:50;7.03;;;1.38;;
50511;SDS011;36446;47.642;-3.018;2023-12-28T13:14:17;6.30;;;1.40;;
50511;SDS011;36446;47.642;-3.018;2023-12-28T13:16:46;8.30;;;1.33;;
50511;SDS011;36446;47.642;-3.018;2023-12-28T13:19:19;6.47;;;1.33;;
50511;SDS011;36446;47.642;-3.018;2023-12-28T13:21:46;8.60;;;1.55;;
50511;SDS011;36446;47.642;-3.018;2023-12-28T13:24:14;7.70;;;1.80;;
50511;SDS011;36446;47.642;-3.018;2023-12-28T13:26:41;9.38;;;2.03;;
50511;SDS011;36446;47.642;-3.018;2023-12-28T13:29:08;7.15;;;1.90;;
50511;SDS011;36446;47.642;-3.018;2023-12-28T13:31:35;5.07;;;1.80;;
50511;SDS011;36446;47.642;-3.018;2023-12-28T13:34:04;9.32;;;2.40;;
50511;SDS011;36446;47.642;-3.018;2023-12-28T13:36:31;8.43;;;2.15;;
50511;SDS011;36446;47.642;-3.018;2023-12-28T13:38:59;7.33;;;1.90;;
50511;SDS011;36446;47.642;-3.018;2023-12-28T13:41:26;6.25;;;2.10;;
50511;SDS011;36446;47.642;-3.018;2023-12-28T13:43:54;10.05;;;2.30;;
50511;SDS011;36446;47.642;-3.018;2023-12-28T13:46:27;10.07;;;2.20;;
50511;SDS011;36446;47.642;-3.018;2023-12-28T13:48:54;8.07;;;2.08;;
50511;SDS011;36446;47.642;-3.018;2023-12-28T13:51:23;7.07;;;2.00;;
50511;SDS011;36446;47.642;-3.018;2023-12-28T13:53:50;5.78;;;1.85;;
50511;SDS011;36446;47.642;-3.018;2023-12-28T13:56:17;10.07;;;2.28;;
50511;SDS011;36446;47.642;-3.018;2023-12-28T13:58:44;8.32;;;2.00;;
50511;SDS011;36446;47.642;-3.018;2023-12-28T14:01:12;6.72;;;2.40;;
50511;SDS011;36446;47.642;-3.018;2023-12-28T14:03:39;11.50;;;2.30;;
50511;SDS011;36446;47.642;-3.018;2023-12-28T14:06:06;7.18;;;1.92;;
50511;SDS011;36446;47.642;-3.018;2023-12-28T14:08:35;7.82;;;2.10;;
50511;SDS011;36446;47.642;-3.018;2023-12-28T14:11:02;10.00;;;2.47;;
50511;SDS011;36446;47.642;-3.018;2023-12-28T14:13:30;7.95;;;2.10;;
50511;SDS011;36446;47.642;-3.018;2023-12-28T14:15:58;6.55;;;2.00;;
50511;SDS011;36446;47.642;-3.018;2023-12-28T14:18:25;6.05;;;2.10;;
50511;SDS011;36446;47.642;-3.018;2023-12-28T14:20:52;10.23;;;2.50;;
50511;SDS011;36446;47.642;-3.018;2023-12-28T14:23:20;6.25;;;2.20;;
50511;SDS011;36446;47.642;-3.018;2023-12-28T14:25:49;6.82;;;1.85;;
50511;SDS011;36446;47.642;-3.018;2023-12-28T14:28:19;4.95;;;1.88;;
50511;SDS011;36446;47.642;-3.018;2023-12-28T14:30:46;4.30;;;1.70;;
50511;SDS011;36446;47.642;-3.018;2023-12-28T14:33:14;4.88;;;1.92;;